YPDN Airport Information

Runway Information
Runway 11 Length 11004 ft width 197 ft
Elevation 96 ft Threshold 0 ft Heading 109
Runway 29 Length 11004 ft Width 197 ft
Elevation 81 ft Threshold 0 ft Heading 289
Runway 18 Length 5000 ft width 98 ft
Elevation 96 ft Threshold 0 ft Heading 180
Runway 36 Length 5000 ft Width 98 ft
Elevation 91 ft Threshold 0 ft Heading 360
Airport Frequencies
Type A/D Name APP Frequency 125.2 MHZ
Type ARTC Name BRISBANE C Frequency 118.15 MHZ
Type ATIS Name ATIS Frequency 112.6 MHZ
Type CLD Name CLNC DEL Frequency 126.8 MHZ
Type DEP Name DEP Frequency 123 MHZ
Type GND Name GND Frequency 121.8 MHZ
Type MISC Name RAAF AIR O Frequency 897.4 MHZ
Type TWR Name TWR Frequency 133.1 MHZ
Airport Navaids
Type NDB Name Bagot Frequency 308 KHZ
Type TACAN Name Darwin Frequency 113700 KHZ
Type VOR-DME Name Darwin Frequency 112600 KHZ
Type NDB Name Darwin Frequency 344 KHZ
Type NDB Name Howard Springs Frequency 257 KHZ
Airport Weather Information & NOTAM
ADDS - METARS form results

(2155 UTC 22 July 2018)
 
METAR text: YPDN 222130Z 16006KT CAVOK 18/08 Q1015 NOSIG
Conditions at: YPDN (DARWIN (CIV/MIL), AU) observed 2130 UTC 22 July 2018
Temperature: 18.0°C (64°F)
Dewpoint: 8.0°C (46°F) [RH = 52%]
Pressure (altimeter): 29.97 inches Hg (1015.0 mb)
Winds: from the SSE (160 degrees) at 7 MPH (6 knots; 3.1 m/s)
Visibility: 6 or more miles (10+ km)
Ceiling: ceiling and visibility are OK
Clouds: unknown
Weather: no significant weather observed at this time

METAR text: YPDN 222100Z 16006KT CAVOK 18/07 Q1014 NOSIG
Conditions at: YPDN (DARWIN (CIV/MIL), AU) observed 2100 UTC 22 July 2018
Temperature: 18.0°C (64°F)
Dewpoint: 7.0°C (45°F) [RH = 49%]
Pressure (altimeter): 29.94 inches Hg (1014.0 mb)
Winds: from the SSE (160 degrees) at 7 MPH (6 knots; 3.1 m/s)
Visibility: 6 or more miles (10+ km)
Ceiling: ceiling and visibility are OK
Clouds: unknown
Weather: no significant weather observed at this time